sensor_id;sensor_type;location;lat;lon;timestamp;pressure;altitude;pressure_sealevel;temperature;humidity
22872;BME280;11603;44.910;8.630;2023-03-21T00:00:58;100954.00;;;10.01;100.00
22872;BME280;11603;44.910;8.630;2023-03-21T00:03:24;100954.06;;;10.00;100.00
22872;BME280;11603;44.910;8.630;2023-03-21T00:05:50;100949.75;;;9.97;100.00
22872;BME280;11603;44.910;8.630;2023-03-21T00:08:23;100959.03;;;9.90;100.00
22872;BME280;11603;44.910;8.630;2023-03-21T00:10:56;100958.03;;;9.93;100.00
22872;BME280;11603;44.910;8.630;2023-03-21T00:13:22;100956.31;;;9.92;100.00
22872;BME280;11603;44.910;8.630;2023-03-21T00:15:48;100945.44;;;9.95;100.00
22872;BME280;11603;44.910;8.630;2023-03-21T00:18:20;100949.16;;;9.92;100.00
22872;BME280;11603;44.910;8.630;2023-03-21T00:20:57;100949.22;;;9.91;100.00
22872;BME280;11603;44.910;8.630;2023-03-21T00:23:27;100953.56;;;9.93;100.00
22872;BME280;11603;44.910;8.630;2023-03-21T00:25:53;100950.97;;;9.92;100.00
22872;BME280;11603;44.910;8.630;2023-03-21T00:28:18;100945.88;;;9.87;100.00
22872;BME280;11603;44.910;8.630;2023-03-21T00:30:44;100945.06;;;9.85;100.00
22872;BME280;11603;44.910;8.630;2023-03-21T00:33:09;100942.66;;;9.81;100.00
22872;BME280;11603;44.910;8.630;2023-03-21T00:35:35;100943.06;;;9.73;100.00
22872;BME280;11603;44.910;8.630;2023-03-21T00:38:00;100945.75;;;9.73;100.00
22872;BME280;11603;44.910;8.630;2023-03-21T00:40:26;100947.06;;;9.64;100.00
22872;BME280;11603;44.910;8.630;2023-03-21T00:42:52;100941.97;;;9.60;100.00
22872;BME280;11603;44.910;8.630;2023-03-21T00:45:17;100940.47;;;9.71;100.00
22872;BME280;11603;44.910;8.630;2023-03-21T00:47:43;100939.13;;;9.80;100.00
22872;BME280;11603;44.910;8.630;2023-03-21T00:50:10;100936.91;;;9.88;100.00
22872;BME280;11603;44.910;8.630;2023-03-21T00:52:36;100935.88;;;9.91;100.00
22872;BME280;11603;44.910;8.630;2023-03-21T00:55:04;100932.66;;;9.84;100.00
22872;BME280;11603;44.910;8.630;2023-03-21T00:57:30;100923.88;;;9.82;100.00
22872;BME280;11603;44.910;8.630;2023-03-21T00:59:55;100924.63;;;9.84;100.00
22872;BME280;11603;44.910;8.630;2023-03-21T01:02:23;100925.44;;;9.86;100.00
22872;BME280;11603;44.910;8.630;2023-03-21T01:04:52;100923.25;;;9.77;100.00
22872;BME280;11603;44.910;8.630;2023-03-21T01:07:18;100922.94;;;9.83;100.00
22872;BME280;11603;44.910;8.630;2023-03-21T01:09:44;100927.47;;;9.81;100.00
22872;BME280;11603;44.910;8.630;2023-03-21T01:12:10;100931.19;;;9.78;100.00
22872;BME280;11603;44.910;8.630;2023-03-21T01:14:36;100922.16;;;9.81;100.00
22872;BME280;11603;44.910;8.630;2023-03-21T01:17:02;100921.19;;;9.82;100.00
22872;BME280;11603;44.910;8.630;2023-03-21T01:19:28;100916.88;;;9.79;100.00
22872;BME280;11603;44.910;8.630;2023-03-21T01:21:56;100920.03;;;9.70;100.00
22872;BME280;11603;44.910;8.630;2023-03-21T01:24:23;100912.34;;;9.64;100.00
22872;BME280;11603;44.910;8.630;2023-03-21T01:26:48;100915.19;;;9.61;100.00
22872;BME280;11603;44.910;8.630;2023-03-21T01:29:14;100921.47;;;9.60;100.00
22872;BME280;11603;44.910;8.630;2023-03-21T01:31:39;100912.06;;;9.53;100.00
22872;BME280;11603;44.910;8.630;2023-03-21T01:34:06;100910.66;;;9.46;100.00
22872;BME280;11603;44.910;8.630;2023-03-21T01:36:32;100906.59;;;9.39;100.00
22872;BME280;11603;44.910;8.630;2023-03-21T01:39:04;100902.28;;;9.37;100.00
22872;BME280;11603;44.910;8.630;2023-03-21T01:41:34;100901.41;;;9.36;100.00
22872;BME280;11603;44.910;8.630;2023-03-21T01:44:00;100891.75;;;9.33;100.00
22872;BME280;11603;44.910;8.630;2023-03-21T01:49:29;100905.31;;;9.12;100.00
22872;BME280;11603;44.910;8.630;2023-03-21T01:52:10;100902.59;;;9.13;100.00
22872;BME280;11603;44.910;8.630;2023-03-21T01:54:41;100896.31;;;9.14;100.00
22872;BME280;11603;44.910;8.630;2023-03-21T01:57:11;100900.78;;;9.14;100.00
22872;BME280;11603;44.910;8.630;2023-03-21T01:59:44;100898.59;;;9.05;100.00
22872;BME280;11603;44.910;8.630;2023-03-21T02:02:41;100900.63;;;9.00;100.00
22872;BME280;11603;44.910;8.630;2023-03-21T02:05:59;100895.13;;;9.03;100.00
22872;BME280;11603;44.910;8.630;2023-03-21T02:08:31;100892.47;;;9.03;100.00
22872;BME280;11603;44.910;8.630;2023-03-21T02:10:58;100884.00;;;8.95;100.00
22872;BME280;11603;44.910;8.630;2023-03-21T02:13:37;100884.53;;;8.84;100.00
22872;BME280;11603;44.910;8.630;2023-03-21T02:16:31;100887.50;;;8.78;100.00
22872;BME280;11603;44.910;8.630;2023-03-21T02:27:42;100892.03;;;8.76;100.00
22872;BME280;11603;44.910;8.630;2023-03-21T02:30:37;100887.09;;;8.68;100.00
22872;BME280;11603;44.910;8.630;2023-03-21T02:33:58;100888.41;;;8.60;100.00
22872;BME280;11603;44.910;8.630;2023-03-21T02:44:41;100879.53;;;8.42;100.00
22872;BME280;11603;44.910;8.630;2023-03-21T02:47:15;100880.75;;;8.35;100.00
22872;BME280;11603;44.910;8.630;2023-03-21T02:49:51;100878.63;;;8.23;100.00
22872;BME280;11603;44.910;8.630;2023-03-21T02:52:22;100876.19;;;8.18;100.00
22872;BME280;11603;44.910;8.630;2023-03-21T02:54:51;100883.59;;;8.12;100.00
22872;BME280;11603;44.910;8.630;2023-03-21T02:57:21;100880.88;;;8.13;100.00
22872;BME280;11603;44.910;8.630;2023-03-21T02:59:49;100879.94;;;8.14;100.00
22872;BME280;11603;44.910;8.630;2023-03-21T03:02:21;100869.78;;;8.03;100.00
22872;BME280;11603;44.910;8.630;2023-03-21T03:04:47;100875.03;;;7.86;100.00
22872;BME280;11603;44.910;8.630;2023-03-21T03:07:21;100877.06;;;7.81;100.00
22872;BME280;11603;44.910;8.630;2023-03-21T03:26:16;100863.91;;;8.16;100.00
22872;BME280;11603;44.910;8.630;2023-03-21T03:28:48;100871.44;;;8.25;100.00
22872;BME280;11603;44.910;8.630;2023-03-21T03:31:21;100858.78;;;8.30;100.00
22872;BME280;11603;44.910;8.630;2023-03-21T03:33:55;100850.72;;;8.31;100.00
22872;BME280;11603;44.910;8.630;2023-03-21T03:36:28;100856.06;;;8.31;100.00
22872;BME280;11603;44.910;8.630;2023-03-21T03:38:56;100862.97;;;8.35;100.00
22872;BME280;11603;44.910;8.630;2023-03-21T03:41:26;100859.59;;;8.32;100.00
22872;BME280;11603;44.910;8.630;2023-03-21T03:43:58;100859.66;;;8.30;100.00
22872;BME280;11603;44.910;8.630;2023-03-21T03:46:35;100863.56;;;8.22;100.00
22872;BME280;11603;44.910;8.630;2023-03-21T03:49:08;100856.59;;;8.19;100.00
22872;BME280;11603;44.910;8.630;2023-03-21T03:51:43;100857.69;;;8.15;100.00
22872;BME280;11603;44.910;8.630;2023-03-21T03:54:37;100857.91;;;8.11;100.00
22872;BME280;11603;44.910;8.630;2023-03-21T03:57:05;100864.19;;;8.09;100.00
22872;BME280;11603;44.910;8.630;2023-03-21T03:59:37;100858.91;;;8.08;100.00
22872;BME280;11603;44.910;8.630;2023-03-21T04:02:31;100862.38;;;8.10;100.00
22872;BME280;11603;44.910;8.630;2023-03-21T04:05:00;100858.78;;;8.11;100.00
22872;BME280;11603;44.910;8.630;2023-03-21T04:07:26;100858.00;;;8.09;100.00
22872;BME280;11603;44.910;8.630;2023-03-21T04:09:55;100855.78;;;8.00;100.00
22872;BME280;11603;44.910;8.630;2023-03-21T04:12:20;100861.22;;;7.97;100.00
22872;BME280;11603;44.910;8.630;2023-03-21T04:15:09;100862.25;;;7.94;100.00
22872;BME280;11603;44.910;8.630;2023-03-21T04:17:37;100867.78;;;7.90;100.00
22872;BME280;11603;44.910;8.630;2023-03-21T04:20:05;100865.19;;;7.88;100.00
22872;BME280;11603;44.910;8.630;2023-03-21T04:22:32;100864.59;;;7.82;100.00
22872;BME280;11603;44.910;8.630;2023-03-21T04:24:59;100867.81;;;7.70;100.00
22872;BME280;11603;44.910;8.630;2023-03-21T04:27:30;100869.19;;;7.59;100.00
22872;BME280;11603;44.910;8.630;2023-03-21T04:30:17;100873.19;;;7.49;100.00
22872;BME280;11603;44.910;8.630;2023-03-21T04:32:51;100878.19;;;7.57;100.00
22872;BME280;11603;44.910;8.630;2023-03-21T04:35:22;100871.06;;;7.57;100.00
22872;BME280;11603;44.910;8.630;2023-03-21T04:37:48;100866.50;;;7.59;100.00
22872;BME280;11603;44.910;8.630;2023-03-21T04:40:14;100875.31;;;7.61;100.00
22872;BME280;11603;44.910;8.630;2023-03-21T04:42:43;100869.28;;;7.58;100.00
22872;BME280;11603;44.910;8.630;2023-03-21T04:45:11;100876.66;;;7.51;100.00
22872;BME280;11603;44.910;8.630;2023-03-21T04:47:37;100873.41;;;7.45;100.00
22872;BME280;11603;44.910;8.630;2023-03-21T04:50:03;100875.47;;;7.38;100.00
22872;BME280;11603;44.910;8.630;2023-03-21T04:52:29;100875.41;;;7.40;100.00
22872;BME280;11603;44.910;8.630;2023-03-21T04:54:55;100875.56;;;7.37;100.00
22872;BME280;11603;44.910;8.630;2023-03-21T04:57:21;100875.63;;;7.35;100.00
22872;BME280;11603;44.910;8.630;2023-03-21T04:59:47;100883.75;;;7.32;100.00
22872;BME280;11603;44.910;8.630;2023-03-21T05:02:13;100876.75;;;7.30;100.00
22872;BME280;11603;44.910;8.630;2023-03-21T05:04:39;100868.66;;;7.33;100.00
22872;BME280;11603;44.910;8.630;2023-03-21T05:07:07;100872.22;;;7.32;100.00
22872;BME280;11603;44.910;8.630;2023-03-21T05:09:33;100866.00;;;7.33;100.00
22872;BME280;11603;44.910;8.630;2023-03-21T05:11:58;100863.50;;;7.28;100.00
22872;BME280;11603;44.910;8.630;2023-03-21T05:14:26;100856.59;;;7.24;100.00
22872;BME280;11603;44.910;8.630;2023-03-21T05:16:52;100861.91;;;7.24;100.00
22872;BME280;11603;44.910;8.630;2023-03-21T05:19:23;100866.56;;;7.19;100.00
22872;BME280;11603;44.910;8.630;2023-03-21T05:21:50;100867.38;;;7.21;100.00
22872;BME280;11603;44.910;8.630;2023-03-21T05:24:23;100856.53;;;7.26;100.00
22872;BME280;11603;44.910;8.630;2023-03-21T05:26:49;100861.66;;;7.30;100.00
22872;BME280;11603;44.910;8.630;2023-03-21T05:29:20;100868.81;;;7.28;100.00
22872;BME280;11603;44.910;8.630;2023-03-21T05:31:55;100866.09;;;7.30;100.00
22872;BME280;11603;44.910;8.630;2023-03-21T05:34:21;100868.56;;;7.34;100.00
22872;BME280;11603;44.910;8.630;2023-03-21T05:36:46;100871.88;;;7.39;100.00
22872;BME280;11603;44.910;8.630;2023-03-21T05:39:12;100869.88;;;7.44;100.00
22872;BME280;11603;44.910;8.630;2023-03-21T05:41:44;100874.94;;;7.50;100.00
22872;BME280;11603;44.910;8.630;2023-03-21T05:44:09;100873.84;;;7.54;100.00
22872;BME280;11603;44.910;8.630;2023-03-21T05:46:36;100873.50;;;7.62;100.00
22872;BME280;11603;44.910;8.630;2023-03-21T05:49:03;100879.09;;;7.56;100.00
22872;BME280;11603;44.910;8.630;2023-03-21T05:51:28;100882.69;;;7.55;100.00
22872;BME280;11603;44.910;8.630;2023-03-21T05:53:54;100872.81;;;7.58;100.00
22872;BME280;11603;44.910;8.630;2023-03-21T05:56:20;100893.78;;;7.64;100.00
22872;BME280;11603;44.910;8.630;2023-03-21T05:58:50;100891.22;;;7.63;100.00
22872;BME280;11603;44.910;8.630;2023-03-21T06:01:16;100894.66;;;7.65;100.00
22872;BME280;11603;44.910;8.630;2023-03-21T06:03:50;100895.41;;;7.69;100.00
22872;BME280;11603;44.910;8.630;2023-03-21T06:06:19;100890.78;;;7.53;100.00
22872;BME280;11603;44.910;8.630;2023-03-21T06:08:57;100884.59;;;7.72;100.00
22872;BME280;11603;44.910;8.630;2023-03-21T06:11:26;100884.28;;;7.79;100.00
22872;BME280;11603;44.910;8.630;2023-03-21T06:14:16;100883.84;;;7.88;100.00
22872;BME280;11603;44.910;8.630;2023-03-21T06:16:44;100882.91;;;7.89;100.00
22872;BME280;11603;44.910;8.630;2023-03-21T06:19:10;100877.94;;;8.00;100.00
22872;BME280;11603;44.910;8.630;2023-03-21T06:21:48;100881.16;;;8.07;100.00
22872;BME280;11603;44.910;8.630;2023-03-21T06:24:14;100871.16;;;8.12;100.00
22872;BME280;11603;44.910;8.630;2023-03-21T06:26:40;100886.16;;;8.15;100.00
22872;BME280;11603;44.910;8.630;2023-03-21T06:29:07;100879.09;;;8.14;100.00
22872;BME280;11603;44.910;8.630;2023-03-21T06:31:33;100886.06;;;8.16;100.00
22872;BME280;11603;44.910;8.630;2023-03-21T06:34:01;100891.31;;;8.18;100.00
22872;BME280;11603;44.910;8.630;2023-03-21T06:36:27;100882.81;;;8.28;100.00
22872;BME280;11603;44.910;8.630;2023-03-21T06:38:52;100886.56;;;8.43;100.00
22872;BME280;11603;44.910;8.630;2023-03-21T06:41:18;100895.53;;;8.42;100.00
22872;BME280;11603;44.910;8.630;2023-03-21T06:43:52;100895.81;;;8.36;100.00
22872;BME280;11603;44.910;8.630;2023-03-21T06:46:19;100890.38;;;8.37;100.00
22872;BME280;11603;44.910;8.630;2023-03-21T06:48:47;100892.47;;;8.49;100.00
22872;BME280;11603;44.910;8.630;2023-03-21T06:51:17;100897.72;;;8.51;100.00
22872;BME280;11603;44.910;8.630;2023-03-21T06:54:00;100895.53;;;8.59;100.00
22872;BME280;11603;44.910;8.630;2023-03-21T06:56:37;100888.34;;;8.61;100.00
22872;BME280;11603;44.910;8.630;2023-03-21T06:59:03;100890.59;;;8.52;100.00
22872;BME280;11603;44.910;8.630;2023-03-21T07:01:49;100893.97;;;8.55;100.00
22872;BME280;11603;44.910;8.630;2023-03-21T07:04:18;100897.03;;;8.65;100.00
22872;BME280;11603;44.910;8.630;2023-03-21T07:06:43;100903.03;;;8.87;100.00
22872;BME280;11603;44.910;8.630;2023-03-21T07:09:09;100904.31;;;8.97;100.00
22872;BME280;11603;44.910;8.630;2023-03-21T07:11:36;100907.16;;;8.94;100.00
22872;BME280;11603;44.910;8.630;2023-03-21T07:14:02;100904.94;;;9.02;100.00
22872;BME280;11603;44.910;8.630;2023-03-21T07:16:28;100897.50;;;9.09;100.00
22872;BME280;11603;44.910;8.630;2023-03-21T07:18:54;100893.97;;;9.25;100.00
22872;BME280;11603;44.910;8.630;2023-03-21T07:21:20;100888.59;;;9.43;100.00
22872;BME280;11603;44.910;8.630;2023-03-21T07:23:46;100886.31;;;9.52;100.00
22872;BME280;11603;44.910;8.630;2023-03-21T07:26:11;100891.81;;;9.49;100.00
22872;BME280;11603;44.910;8.630;2023-03-21T07:28:37;100887.94;;;9.55;100.00
22872;BME280;11603;44.910;8.630;2023-03-21T07:31:05;100880.91;;;9.69;100.00
22872;BME280;11603;44.910;8.630;2023-03-21T07:33:32;100887.66;;;9.76;100.00
22872;BME280;11603;44.910;8.630;2023-03-21T07:36:01;100887.16;;;9.86;100.00
22872;BME280;11603;44.910;8.630;2023-03-21T07:38:27;100883.88;;;9.81;100.00
22872;BME280;11603;44.910;8.630;2023-03-21T07:40:57;100883.56;;;10.02;100.00
22872;BME280;11603;44.910;8.630;2023-03-21T07:43:24;100880.38;;;10.11;100.00
22872;BME280;11603;44.910;8.630;2023-03-21T07:45:55;100884.03;;;10.26;100.00
22872;BME280;11603;44.910;8.630;2023-03-21T07:48:21;100887.84;;;10.38;100.00
22872;BME280;11603;44.910;8.630;2023-03-21T07:50:48;100890.69;;;10.50;100.00
22872;BME280;11603;44.910;8.630;2023-03-21T07:53:13;100893.28;;;10.68;100.00
22872;BME280;11603;44.910;8.630;2023-03-21T07:55:38;100887.88;;;10.83;100.00
22872;BME280;11603;44.910;8.630;2023-03-21T07:58:04;100888.09;;;10.94;100.00
22872;BME280;11603;44.910;8.630;2023-03-21T08:00:30;100884.34;;;11.13;100.00
22872;BME280;11603;44.910;8.630;2023-03-21T08:02:56;100878.03;;;11.14;100.00
22872;BME280;11603;44.910;8.630;2023-03-21T08:05:25;100886.00;;;11.29;100.00
22872;BME280;11603;44.910;8.630;2023-03-21T08:07:51;100884.66;;;11.36;100.00
22872;BME280;11603;44.910;8.630;2023-03-21T08:10:17;100878.06;;;11.42;100.00
22872;BME280;11603;44.910;8.630;2023-03-21T08:12:43;100884.00;;;11.33;100.00
22872;BME280;11603;44.910;8.630;2023-03-21T08:15:10;100885.72;;;11.34;100.00
22872;BME280;11603;44.910;8.630;2023-03-21T08:17:38;100887.63;;;11.32;100.00
22872;BME280;11603;44.910;8.630;2023-03-21T08:20:09;100884.13;;;11.45;100.00
22872;BME280;11603;44.910;8.630;2023-03-21T08:22:36;100890.16;;;11.49;100.00
22872;BME280;11603;44.910;8.630;2023-03-21T08:25:03;100890.34;;;11.60;100.00
22872;BME280;11603;44.910;8.630;2023-03-21T08:27:30;100884.94;;;11.76;100.00
22872;BME280;11603;44.910;8.630;2023-03-21T08:29:58;100894.28;;;11.69;100.00
22872;BME280;11603;44.910;8.630;2023-03-21T08:32:23;100883.50;;;11.84;100.00
22872;BME280;11603;44.910;8.630;2023-03-21T08:34:59;100888.00;;;11.84;100.00
22872;BME280;11603;44.910;8.630;2023-03-21T08:37:26;100893.06;;;11.88;100.00
22872;BME280;11603;44.910;8.630;2023-03-21T08:39:51;100889.34;;;11.91;100.00
22872;BME280;11603;44.910;8.630;2023-03-21T08:42:17;100891.63;;;11.97;100.00
22872;BME280;11603;44.910;8.630;2023-03-21T08:44:43;100884.44;;;12.12;100.00
22872;BME280;11603;44.910;8.630;2023-03-21T08:47:08;100889.03;;;12.24;100.00
22872;BME280;11603;44.910;8.630;2023-03-21T08:49:35;100892.78;;;12.48;100.00
22872;BME280;11603;44.910;8.630;2023-03-21T08:52:00;100890.31;;;12.45;100.00
22872;BME280;11603;44.910;8.630;2023-03-21T08:54:26;100892.66;;;12.64;100.00
22872;BME280;11603;44.910;8.630;2023-03-21T08:56:51;100886.41;;;12.63;100.00
22872;BME280;11603;44.910;8.630;2023-03-21T08:59:17;100889.75;;;12.67;100.00
22872;BME280;11603;44.910;8.630;2023-03-21T09:01:42;100888.09;;;12.79;100.00
22872;BME280;11603;44.910;8.630;2023-03-21T09:04:09;100889.16;;;13.03;100.00
22872;BME280;11603;44.910;8.630;2023-03-21T09:06:36;100893.34;;;13.07;100.00
22872;BME280;11603;44.910;8.630;2023-03-21T09:09:02;100887.09;;;13.33;100.00
22872;BME280;11603;44.910;8.630;2023-03-21T09:11:32;100888.28;;;13.29;100.00
22872;BME280;11603;44.910;8.630;2023-03-21T09:13:57;100891.06;;;13.53;100.00
22872;BME280;11603;44.910;8.630;2023-03-21T09:16:24;100888.59;;;13.63;100.00
22872;BME280;11603;44.910;8.630;2023-03-21T09:18:50;100877.53;;;13.80;100.00
22872;BME280;11603;44.910;8.630;2023-03-21T09:21:20;100873.75;;;13.82;100.00
22872;BME280;11603;44.910;8.630;2023-03-21T09:23:47;100879.22;;;14.06;100.00
22872;BME280;11603;44.910;8.630;2023-03-21T09:26:17;100876.22;;;14.34;100.00
22872;BME280;11603;44.910;8.630;2023-03-21T09:28:44;100875.50;;;14.32;100.00
22872;BME280;11603;44.910;8.630;2023-03-21T09:31:11;100869.81;;;14.37;100.00
22872;BME280;11603;44.910;8.630;2023-03-21T09:33:39;100873.25;;;14.39;100.00
22872;BME280;11603;44.910;8.630;2023-03-21T09:36:06;100881.75;;;14.33;100.00
22872;BME280;11603;44.910;8.630;2023-03-21T09:38:42;100880.56;;;14.61;100.00
22872;BME280;11603;44.910;8.630;2023-03-21T09:48:58;100888.41;;;15.11;100.00
22872;BME280;11603;44.910;8.630;2023-03-21T09:51:31;100879.38;;;15.12;100.00
22872;BME280;11603;44.910;8.630;2023-03-21T09:54:02;100876.81;;;15.22;100.00
22872;BME280;11603;44.910;8.630;2023-03-21T09:56:29;100871.91;;;15.16;100.00
22872;BME280;11603;44.910;8.630;2023-03-21T09:58:56;100869.19;;;15.16;100.00
22872;BME280;11603;44.910;8.630;2023-03-21T10:01:30;100864.16;;;15.11;100.00
22872;BME280;11603;44.910;8.630;2023-03-21T10:04:07;100879.63;;;15.20;100.00
22872;BME280;11603;44.910;8.630;2023-03-21T10:06:37;100872.72;;;15.05;100.00
22872;BME280;11603;44.910;8.630;2023-03-21T10:09:15;100869.66;;;15.10;100.00
22872;BME280;11603;44.910;8.630;2023-03-21T10:11:44;100864.00;;;15.37;100.00
22872;BME280;11603;44.910;8.630;2023-03-21T10:14:29;100861.06;;;15.51;100.00
22872;BME280;11603;44.910;8.630;2023-03-21T10:17:00;100846.78;;;15.95;100.00
22872;BME280;11603;44.910;8.630;2023-03-21T10:19:27;100857.31;;;16.20;100.00
22872;BME280;11603;44.910;8.630;2023-03-21T10:21:53;100841.50;;;16.27;100.00
22872;BME280;11603;44.910;8.630;2023-03-21T10:24:20;100847.00;;;16.36;100.00
22872;BME280;11603;44.910;8.630;2023-03-21T10:26:49;100845.22;;;16.69;100.00
22872;BME280;11603;44.910;8.630;2023-03-21T10:29:16;100839.91;;;16.78;100.00
22872;BME280;11603;44.910;8.630;2023-03-21T10:31:44;100829.78;;;17.12;100.00
22872;BME280;11603;44.910;8.630;2023-03-21T10:34:37;100830.03;;;17.30;100.00
22872;BME280;11603;44.910;8.630;2023-03-21T10:37:04;100818.59;;;17.38;100.00
22872;BME280;11603;44.910;8.630;2023-03-21T10:39:34;100814.91;;;17.48;100.00
22872;BME280;11603;44.910;8.630;2023-03-21T10:42:01;100810.53;;;17.47;100.00
22872;BME280;11603;44.910;8.630;2023-03-21T10:44:32;100815.84;;;17.58;100.00
22872;BME280;11603;44.910;8.630;2023-03-21T10:47:07;100811.53;;;17.76;100.00
22872;BME280;11603;44.910;8.630;2023-03-21T10:49:33;100821.13;;;17.90;100.00
22872;BME280;11603;44.910;8.630;2023-03-21T10:52:10;100810.34;;;18.00;100.00
22872;BME280;11603;44.910;8.630;2023-03-21T10:54:37;100808.84;;;18.26;100.00
22872;BME280;11603;44.910;8.630;2023-03-21T10:57:06;100807.91;;;18.46;100.00
22872;BME280;11603;44.910;8.630;2023-03-21T10:59:39;100801.63;;;18.46;100.00
22872;BME280;11603;44.910;8.630;2023-03-21T11:02:16;100803.16;;;18.48;100.00
22872;BME280;11603;44.910;8.630;2023-03-21T11:04:44;100798.66;;;18.58;100.00
22872;BME280;11603;44.910;8.630;2023-03-21T11:07:12;100808.78;;;18.66;100.00
22872;BME280;11603;44.910;8.630;2023-03-21T11:09:54;100791.09;;;18.81;96.90
22872;BME280;11603;44.910;8.630;2023-03-21T11:12:30;100792.22;;;18.50;99.38
22872;BME280;11603;44.910;8.630;2023-03-21T11:15:27;100800.25;;;18.61;99.24
22872;BME280;11603;44.910;8.630;2023-03-21T11:17:54;100793.66;;;19.02;96.71
22872;BME280;11603;44.910;8.630;2023-03-21T11:20:20;100780.88;;;19.31;92.87
22872;BME280;11603;44.910;8.630;2023-03-21T11:22:47;100776.56;;;19.58;87.98
22872;BME280;11603;44.910;8.630;2023-03-21T11:25:23;100772.28;;;19.55;81.70
22872;BME280;11603;44.910;8.630;2023-03-21T11:27:53;100771.56;;;19.53;79.27
22872;BME280;11603;44.910;8.630;2023-03-21T11:30:24;100756.38;;;19.70;78.14
22872;BME280;11603;44.910;8.630;2023-03-21T11:32:54;100762.47;;;19.81;79.63
22872;BME280;11603;44.910;8.630;2023-03-21T11:35:38;100757.75;;;19.83;80.07
22872;BME280;11603;44.910;8.630;2023-03-21T11:38:05;100753.53;;;19.71;80.18
22872;BME280;11603;44.910;8.630;2023-03-21T11:40:34;100765.38;;;19.98;79.70
22872;BME280;11603;44.910;8.630;2023-03-21T11:46:04;100750.00;;;19.88;77.89
22872;BME280;11603;44.910;8.630;2023-03-21T11:48:33;100743.06;;;19.76;80.48
22872;BME280;11603;44.910;8.630;2023-03-21T11:51:32;100739.28;;;19.87;80.21
22872;BME280;11603;44.910;8.630;2023-03-21T11:54:09;100737.91;;;20.01;76.90
22872;BME280;11603;44.910;8.630;2023-03-21T11:56:44;100733.59;;;20.08;75.65
22872;BME280;11603;44.910;8.630;2023-03-21T11:59:19;100735.91;;;20.03;73.93
22872;BME280;11603;44.910;8.630;2023-03-21T12:02:06;100715.91;;;20.04;76.28
22872;BME280;11603;44.910;8.630;2023-03-21T12:04:40;100716.75;;;20.22;78.14
22872;BME280;11603;44.910;8.630;2023-03-21T12:10:07;100705.38;;;20.36;78.87
22872;BME280;11603;44.910;8.630;2023-03-21T12:15:57;100688.84;;;20.47;82.77
22872;BME280;11603;44.910;8.630;2023-03-21T12:18:47;100681.84;;;20.27;85.50
22872;BME280;11603;44.910;8.630;2023-03-21T12:24:45;100665.34;;;20.82;80.29
22872;BME280;11603;44.910;8.630;2023-03-21T12:27:18;100669.56;;;20.76;79.54
22872;BME280;11603;44.910;8.630;2023-03-21T12:29:59;100658.84;;;20.75;80.32
22872;BME280;11603;44.910;8.630;2023-03-21T12:38:20;100644.81;;;20.61;75.39
22872;BME280;11603;44.910;8.630;2023-03-21T12:43:48;100628.78;;;20.76;74.22
22872;BME280;11603;44.910;8.630;2023-03-21T12:48:56;100630.94;;;20.29;79.97
22872;BME280;11603;44.910;8.630;2023-03-21T12:51:28;100624.50;;;20.12;87.99
22872;BME280;11603;44.910;8.630;2023-03-21T12:59:24;100604.47;;;19.78;89.77
22872;BME280;11603;44.910;8.630;2023-03-21T13:01:55;100610.75;;;19.78;91.53
22872;BME280;11603;44.910;8.630;2023-03-21T13:04:33;100605.25;;;19.70;90.40
22872;BME280;11603;44.910;8.630;2023-03-21T13:07:02;100594.16;;;19.81;90.65
22872;BME280;11603;44.910;8.630;2023-03-21T13:09:34;100596.88;;;19.99;91.84
22872;BME280;11603;44.910;8.630;2023-03-21T13:14:42;100594.75;;;20.11;92.31
22872;BME280;11603;44.910;8.630;2023-03-21T13:17:20;100588.78;;;20.25;90.44
22872;BME280;11603;44.910;8.630;2023-03-21T13:20:00;100587.13;;;20.50;89.39
22872;BME280;11603;44.910;8.630;2023-03-21T13:22:30;100580.44;;;20.62;85.82
22872;BME280;11603;44.910;8.630;2023-03-21T13:27:31;100565.81;;;20.63;85.75
22872;BME280;11603;44.910;8.630;2023-03-21T13:30:01;100562.16;;;20.72;85.80
22872;BME280;11603;44.910;8.630;2023-03-21T13:32:37;100565.25;;;20.51;87.06
22872;BME280;11603;44.910;8.630;2023-03-21T13:35:13;100559.06;;;20.67;85.78
22872;BME280;11603;44.910;8.630;2023-03-21T13:37:42;100557.16;;;20.67;82.64
22872;BME280;11603;44.910;8.630;2023-03-21T13:40:27;100563.00;;;20.73;81.85
22872;BME280;11603;44.910;8.630;2023-03-21T13:42:59;100554.59;;;20.92;80.19
22872;BME280;11603;44.910;8.630;2023-03-21T13:45:33;100552.41;;;20.95;80.11
22872;BME280;11603;44.910;8.630;2023-03-21T13:48:26;100544.00;;;20.81;79.99
22872;BME280;11603;44.910;8.630;2023-03-21T13:50:59;100543.94;;;20.98;79.09
22872;BME280;11603;44.910;8.630;2023-03-21T13:53:37;100538.44;;;20.90;79.37
22872;BME280;11603;44.910;8.630;2023-03-21T13:58:43;100530.94;;;20.84;80.05
22872;BME280;11603;44.910;8.630;2023-03-21T14:03:58;100526.63;;;20.73;81.50
22872;BME280;11603;44.910;8.630;2023-03-21T14:06:32;100532.44;;;20.79;82.18
22872;BME280;11603;44.910;8.630;2023-03-21T14:08:59;100523.06;;;20.73;83.45
22872;BME280;11603;44.910;8.630;2023-03-21T14:11:27;100524.41;;;20.69;83.50
22872;BME280;11603;44.910;8.630;2023-03-21T14:13:55;100524.47;;;20.85;82.20
22872;BME280;11603;44.910;8.630;2023-03-21T14:16:25;100527.69;;;20.81;82.09
22872;BME280;11603;44.910;8.630;2023-03-21T14:19:02;100520.56;;;20.54;82.56
22872;BME280;11603;44.910;8.630;2023-03-21T14:21:31;100517.72;;;20.55;84.37
22872;BME280;11603;44.910;8.630;2023-03-21T14:24:11;100520.44;;;20.55;84.56
22872;BME280;11603;44.910;8.630;2023-03-21T14:26:41;100511.56;;;20.53;83.44
22872;BME280;11603;44.910;8.630;2023-03-21T14:29:08;100504.63;;;20.59;85.00